Time;durP1;ratioP1;P1;durP2;ratioP2;P2;SDS_P1;SDS_P2;PMS_P1;PMS_P2;Temp;Humidity;BMP_temperature;BMP_pressure;BME280_temperature;BME280_humidity;BME280_pressure;Samples;Min_cycle;Max_cycle;Signal;HPM_P1;HPM_P2
2023/10/10 00:02:44;;;;;;;839.70;752.10;;;;;;;;;;10422256;28;20025;-65
2023/10/10 00:07:46;;;;;;;808.53;722.55;;;;;;;;;;10423063;28;20215;-66
2023/10/10 00:12:48;;;;;;;845.05;756.80;;;;;;;;;;10421953;28;20021;-65
2023/10/10 00:17:48;;;;;;;927.65;835.55;;;;;;;;;;10420672;28;20029;-66
2023/10/10 00:22:57;;;;;;;917.60;826.45;;;;;;;;;;10421425;28;20021;-66
2023/10/10 00:28:06;;;;;;;929.13;836.97;;;;;;;;;;10421443;28;20032;-66
2023/10/10 00:33:07;;;;;;;931.75;838.95;;;;;;;;;;10421516;28;20036;-66
2023/10/10 00:38:07;;;;;;;956.72;861.97;;;;;;;;;;10421180;28;20208;-65
2023/10/10 00:43:16;;;;;;;988.55;892.35;;;;;;;;;;10421429;28;20021;-66
2023/10/10 00:48:21;;;;;;;982.47;886.58;;;;;;;;;;10420766;28;20228;-65
2023/10/10 00:53:22;;;;;;;958.45;863.25;;;;;;;;;;10403610;28;20063;-65
2023/10/10 00:58:35;;;;;;;986.72;890.55;;;;;;;;;;10398721;28;20029;-65
2023/10/10 01:03:37;;;;;;;962.75;867.83;;;;;;;;;;10419108;28;20044;-65
2023/10/10 01:08:48;;;;;;;981.90;885.65;;;;;;;;;;10404914;28;20231;-65
2023/10/10 01:13:52;;;;;;;964.08;874.42;;;;;;;;;;10406282;28;20036;-65
2023/10/10 01:18:57;;;;;;;954.88;879.05;;;;;;;;;;10423867;28;20240;-66
2023/10/10 01:24:05;;;;;;;983.08;909.92;;;;;;;;;;10420956;28;20055;-66
2023/10/10 01:29:25;;;;;;;808.90;752.30;;;;;;;;;;10419842;28;20029;-66
2023/10/10 01:34:32;;;;;;;762.35;709.63;;;;;;;;;;10419523;28;20206;-65
2023/10/10 01:39:51;;;;;;;681.17;635.07;;;;;;;;;;10418704;28;20044;-65
2023/10/10 01:44:52;;;;;;;714.90;666.00;;;;;;;;;;10418513;28;20033;-66
2023/10/10 01:49:58;;;;;;;709.97;661.77;;;;;;;;;;10419139;28;20025;-65
2023/10/10 01:55:00;;;;;;;849.35;789.78;;;;;;;;;;10418265;28;20386;-66
2023/10/10 02:00:10;;;;;;;889.53;827.38;;;;;;;;;;10418720;28;20224;-66
2023/10/10 02:05:13;;;;;;;857.83;797.88;;;;;;;;;;10379569;28;20076;-66
2023/10/10 02:10:13;;;;;;;825.65;768.08;;;;;;;;;;10417504;28;20014;-66
2023/10/10 02:15:18;;;;;;;831.97;774.08;;;;;;;;;;10417651;28;20028;-65
2023/10/10 02:30:34;;;;;;;836.05;777.28;;;;;;;;;;10416831;28;20067;-65
2023/10/10 02:35:46;;;;;;;837.60;778.88;;;;;;;;;;10416690;28;20224;-66
2023/10/10 02:40:51;;;;;;;807.85;751.70;;;;;;;;;;10417689;28;20113;-66
2023/10/10 02:45:51;;;;;;;796.30;740.75;;;;;;;;;;10421886;28;20030;-65
2023/10/10 02:50:52;;;;;;;862.85;802.63;;;;;;;;;;10416311;28;20262;-64
2023/10/10 02:55:52;;;;;;;897.60;834.45;;;;;;;;;;10415173;28;20021;-64
2023/10/10 03:00:57;;;;;;;869.40;807.73;;;;;;;;;;10416119;28;20092;-64
2023/10/10 03:05:58;;;;;;;538.28;502.70;;;;;;;;;;10416012;28;20297;-64
2023/10/10 03:11:01;;;;;;;516.35;482.48;;;;;;;;;;10416033;28;20307;-65
2023/10/10 03:16:19;;;;;;;603.78;561.92;;;;;;;;;;10415884;28;20088;-65
2023/10/10 03:21:35;;;;;;;977.95;907.17;;;;;;;;;;10415920;28;20091;-65
2023/10/10 03:32:59;;;;;;;973.60;902.55;;;;;;;;;;10414627;28;20104;-66
2023/10/10 05:23:35;;;;;;;1044.68;966.78;;;;;;;;;;10402030;28;20076;-67
2023/10/10 05:28:40;;;;;;;1048.82;970.15;;;;;;;;;;10415648;28;20465;-67
2023/10/10 05:33:41;;;;;;;647.38;600.83;;;;;;;;;;10415459;28;20345;-67
2023/10/10 05:38:41;;;;;;;705.90;654.20;;;;;;;;;;10418329;28;20227;-66
2023/10/10 05:43:41;;;;;;;1030.73;950.43;;;;;;;;;;10417781;28;20040;-67
2023/10/10 05:48:41;;;;;;;590.53;549.35;;;;;;;;;;10417918;28;20089;-67
2023/10/10 05:53:42;;;;;;;778.22;720.67;;;;;;;;;;10417879;28;20025;-67
2023/10/10 05:58:46;;;;;;;818.23;757.63;;;;;;;;;;10417197;28;20079;-67
2023/10/10 06:03:47;;;;;;;820.67;759.70;;;;;;;;;;10417382;28;20037;-67
2023/10/10 06:08:53;;;;;;;859.60;795.80;;;;;;;;;;10418044;28;20052;-67
2023/10/10 06:13:53;;;;;;;835.42;773.50;;;;;;;;;;10417599;28;20215;-67
2023/10/10 06:18:54;;;;;;;905.55;838.03;;;;;;;;;;10417435;28;20081;-67
2023/10/10 06:23:54;;;;;;;882.57;815.97;;;;;;;;;;10414764;28;20021;-67
2023/10/10 06:28:56;;;;;;;903.42;835.45;;;;;;;;;;10416440;28;20021;-68
2023/10/10 06:33:57;;;;;;;846.40;782.47;;;;;;;;;;10415580;28;20127;-68
2023/10/10 06:44:01;;;;;;;925.90;856.90;;;;;;;;;;10416597;28;20330;-68
2023/10/10 06:49:04;;;;;;;967.10;894.67;;;;;;;;;;10415194;28;20045;-68
2023/10/10 06:54:27;;;;;;;944.20;873.08;;;;;;;;;;10415558;28;20084;-67
2023/10/10 06:59:27;;;;;;;921.35;852.35;;;;;;;;;;10415304;28;20297;-68
2023/10/10 07:04:28;;;;;;;713.92;660.08;;;;;;;;;;10414971;28;20021;-68
2023/10/10 07:09:28;;;;;;;753.13;696.83;;;;;;;;;;10415949;28;20021;-68
2023/10/10 07:14:29;;;;;;;855.63;792.42;;;;;;;;;;10415027;28;20036;-67
2023/10/10 07:19:30;;;;;;;965.55;894.35;;;;;;;;;;10415099;28;20075;-68
2023/10/10 07:24:40;;;;;;;834.55;771.78;;;;;;;;;;10414810;28;20377;-68
2023/10/10 07:34:49;;;;;;;864.05;798.17;;;;;;;;;;10421006;28;20319;-67
2023/10/10 07:39:55;;;;;;;887.75;820.00;;;;;;;;;;10427422;28;20048;-67
2023/10/10 07:44:56;;;;;;;857.53;791.25;;;;;;;;;;10422590;28;20029;-67
2023/10/10 07:49:59;;;;;;;886.92;818.00;;;;;;;;;;10423013;28;20333;-67
2023/10/10 07:55:03;;;;;;;918.22;846.78;;;;;;;;;;10422261;28;20035;-67
2023/10/10 08:00:06;;;;;;;915.33;844.95;;;;;;;;;;10422491;28;20116;-67
2023/10/10 08:05:10;;;;;;;758.72;700.88;;;;;;;;;;10422245;28;20013;-66
2023/10/10 08:10:28;;;;;;;222.57;209.32;;;;;;;;;;10421356;28;20262;-66
2023/10/10 08:15:30;;;;;;;529.33;493.23;;;;;;;;;;10421533;28;20250;-67
2023/10/10 08:25:39;;;;;;;829.28;766.65;;;;;;;;;;10421051;28;20017;-67
2023/10/10 08:30:39;;;;;;;963.50;891.38;;;;;;;;;;10420838;28;20079;-67
2023/10/10 08:35:39;;;;;;;979.35;905.63;;;;;;;;;;10419737;28;20062;-68
2023/10/10 08:40:42;;;;;;;1038.30;956.57;;;;;;;;;;10420035;28;20064;-68
2023/10/10 08:45:43;;;;;;;1036.88;956.13;;;;;;;;;;10419045;28;20036;-65
2023/10/10 08:50:47;;;;;;;1057.85;975.08;;;;;;;;;;10420027;28;20045;-66
2023/10/10 08:55:56;;;;;;;1087.07;997.80;;;;;;;;;;10419864;28;20534;-67
2023/10/10 09:00:57;;;;;;;102.60;90.85;;;;;;;;;;10419498;28;20283;-67
2023/10/10 09:05:58;;;;;;;562.83;519.22;;;;;;;;;;10419763;28;20322;-68
2023/10/10 09:10:58;;;;;;;16.10;3.85;;;;;;;;;;10418842;28;20017;-66
2023/10/10 09:16:00;;;;;;;11.55;4.53;;;;;;;;;;10418989;28;20044;-68
2023/10/10 09:21:18;;;;;;;11.80;3.72;;;;;;;;;;10418403;28;20025;-67
2023/10/10 09:31:31;;;;;;;1100.70;999.90;;;;;;;;;;10418217;28;20291;-68
2023/10/10 09:36:38;;;;;;;1095.55;999.90;;;;;;;;;;10417799;28;20025;-69
2023/10/10 09:42:00;;;;;;;1098.73;999.90;;;;;;;;;;10420195;28;20033;-68
2023/10/10 09:57:26;;;;;;;1136.55;999.90;;;;;;;;;;10416416;28;20363;-68
2023/10/10 10:02:40;;;;;;;1156.00;999.90;;;;;;;;;;10416762;28;20026;-67
2023/10/10 10:07:56;;;;;;;1127.45;999.90;;;;;;;;;;10422085;28;20093;-67
2023/10/10 10:12:59;;;;;;;1146.97;999.90;;;;;;;;;;10414871;28;20068;-67
2023/10/10 10:18:26;;;;;;;1176.28;999.90;;;;;;;;;;10416488;28;20040;-67
2023/10/10 10:23:28;;;;;;;1180.25;999.90;;;;;;;;;;10416060;28;20021;-67
2023/10/10 10:28:28;;;;;;;1164.43;999.90;;;;;;;;;;10416073;28;20319;-67
2023/10/10 10:33:33;;;;;;;1157.78;999.90;;;;;;;;;;10414507;28;20021;-68
2023/10/10 10:38:39;;;;;;;1141.05;999.90;;;;;;;;;;10416062;28;20280;-67
2023/10/10 10:43:41;;;;;;;1141.95;999.90;;;;;;;;;;10415336;28;20071;-67
2023/10/10 10:48:47;;;;;;;1162.43;999.90;;;;;;;;;;10415610;28;20029;-68
2023/10/10 10:53:51;;;;;;;1141.93;999.90;;;;;;;;;;10415300;28;20025;-67
2023/10/10 11:03:55;;;;;;;1069.43;985.00;;;;;;;;;;10414923;28;20091;-67
2023/10/10 11:09:09;;;;;;;1065.13;981.15;;;;;;;;;;10419408;28;20315;-67
2023/10/10 11:14:10;;;;;;;1067.68;986.17;;;;;;;;;;10423838;28;20045;-67
2023/10/10 11:24:25;;;;;;;1012.03;933.88;;;;;;;;;;10423008;28;20017;-68
2023/10/10 11:29:29;;;;;;;1046.28;965.05;;;;;;;;;;10422337;28;20020;-68
2023/10/10 11:34:42;;;;;;;1079.22;993.83;;;;;;;;;;10423516;28;20021;-67
2023/10/10 11:39:49;;;;;;;1061.53;978.25;;;;;;;;;;10420945;28;20254;-68
2023/10/10 11:45:10;;;;;;;1067.13;978.00;;;;;;;;;;10422062;28;20602;-66
2023/10/10 11:50:15;;;;;;;1065.07;982.00;;;;;;;;;;10425727;28;20092;-66
2023/10/10 11:55:17;;;;;;;1079.88;995.03;;;;;;;;;;10422020;28;20365;-67
2023/10/10 12:00:38;;;;;;;1073.43;990.35;;;;;;;;;;10420992;28;20017;-67
2023/10/10 12:05:47;;;;;;;1087.10;998.05;;;;;;;;;;10394981;28;20367;-67
2023/10/10 12:10:47;;;;;;;1077.78;988.58;;;;;;;;;;10421231;28;20310;-68
2023/10/10 12:15:48;;;;;;;1055.47;967.93;;;;;;;;;;10421065;28;20013;-67
2023/10/10 12:20:48;;;;;;;1078.53;992.22;;;;;;;;;;10420093;28;20290;-67
2023/10/10 12:25:49;;;;;;;1051.90;966.45;;;;;;;;;;10420648;28;20209;-66
2023/10/10 12:30:49;;;;;;;1066.88;978.08;;;;;;;;;;10420453;28;20283;-66
2023/10/10 12:35:50;;;;;;;1051.45;963.03;;;;;;;;;;10420534;28;20021;-67
2023/10/10 12:40:51;;;;;;;1063.80;979.30;;;;;;;;;;10420399;28;20060;-67
2023/10/10 12:45:54;;;;;;;1076.05;986.03;;;;;;;;;;10420044;28;20021;-67
2023/10/10 12:50:54;;;;;;;1049.80;962.88;;;;;;;;;;10419971;28;20077;-67
2023/10/10 12:56:05;;;;;;;1052.80;963.92;;;;;;;;;;10419640;28;20136;-67
2023/10/10 13:01:06;;;;;;;876.95;809.15;;;;;;;;;;10419127;28;20067;-67
2023/10/10 13:06:06;;;;;;;1067.32;975.08;;;;;;;;;;10418979;28;20109;-67
2023/10/10 13:11:14;;;;;;;1051.13;965.97;;;;;;;;;;10418635;28;20071;-67
2023/10/10 13:21:35;;;;;;;1030.30;948.50;;;;;;;;;;10417815;28;20036;-67
2023/10/10 13:26:38;;;;;;;1061.38;970.45;;;;;;;;;;10417400;28;20303;-67
2023/10/10 13:31:41;;;;;;;1085.97;996.30;;;;;;;;;;10416193;28;20063;-68
2023/10/10 13:36:41;;;;;;;1069.93;983.17;;;;;;;;;;10419854;28;20280;-67
2023/10/10 13:41:41;;;;;;;1062.43;972.72;;;;;;;;;;10415877;28;20041;-68
2023/10/10 13:46:42;;;;;;;1074.15;980.38;;;;;;;;;;10415976;28;20353;-68
2023/10/10 13:51:42;;;;;;;1064.15;974.72;;;;;;;;;;10416298;28;20082;-67
2023/10/10 13:56:43;;;;;;;1060.37;972.07;;;;;;;;;;10414742;28;20167;-67
2023/10/10 14:01:44;;;;;;;1083.05;991.80;;;;;;;;;;10414074;28;20252;-67
2023/10/10 14:06:47;;;;;;;1074.30;984.00;;;;;;;;;;10408660;28;20030;-67
2023/10/10 14:11:49;;;;;;;1080.82;985.20;;;;;;;;;;10416013;28;20088;-68
2023/10/10 14:16:51;;;;;;;839.67;773.33;;;;;;;;;;10409136;28;20029;-68
2023/10/10 14:21:54;;;;;;;1023.35;945.63;;;;;;;;;;10415656;28;20223;-68
2023/10/10 14:26:55;;;;;;;894.42;825.50;;;;;;;;;;10416166;28;20025;-67
2023/10/10 14:31:58;;;;;;;1024.57;945.67;;;;;;;;;;10415808;28;20025;-66
2023/10/10 14:37:00;;;;;;;1012.15;932.58;;;;;;;;;;10415545;28;20321;-68
2023/10/10 14:42:01;;;;;;;1067.53;979.47;;;;;;;;;;10413387;28;20200;-68
2023/10/10 14:47:04;;;;;;;1071.55;977.95;;;;;;;;;;10415810;28;20025;-68
2023/10/10 14:52:05;;;;;;;1083.28;992.97;;;;;;;;;;10414482;28;20045;-68
2023/10/10 14:57:05;;;;;;;1081.93;992.60;;;;;;;;;;10414697;28;20210;-68
2023/10/10 15:02:06;;;;;;;1078.85;991.28;;;;;;;;;;10414747;28;20025;-68
2023/10/10 15:07:06;;;;;;;1043.70;959.00;;;;;;;;;;10414418;28;20109;-67
2023/10/10 15:12:08;;;;;;;1052.55;964.92;;;;;;;;;;10414486;28;20548;-67
2023/10/10 15:17:09;;;;;;;1083.13;991.53;;;;;;;;;;10414588;28;20052;-67
2023/10/10 15:22:15;;;;;;;1108.68;999.90;;;;;;;;;;10414245;28;20223;-67
2023/10/10 15:27:17;;;;;;;1102.25;997.53;;;;;;;;;;10414403;28;20089;-67
2023/10/10 15:32:17;;;;;;;1085.72;987.40;;;;;;;;;;10413968;28;20357;-66
2023/10/10 15:37:19;;;;;;;1062.40;966.47;;;;;;;;;;10414003;28;20225;-67
2023/10/10 15:42:19;;;;;;;1046.72;949.85;;;;;;;;;;10414478;28;20029;-67
2023/10/10 15:47:21;;;;;;;1063.32;965.33;;;;;;;;;;10400268;28;20032;-67
2023/10/10 15:52:21;;;;;;;1065.75;966.00;;;;;;;;;;10414075;28;20028;-68
2023/10/10 15:57:26;;;;;;;1088.97;991.08;;;;;;;;;;10421814;28;20193;-66
2023/10/10 16:02:26;;;;;;;1078.05;979.22;;;;;;;;;;10420149;28;20319;-66
2023/10/10 16:07:29;;;;;;;1057.95;970.63;;;;;;;;;;10386374;28;20071;-67
2023/10/10 16:12:30;;;;;;;1077.07;988.38;;;;;;;;;;10419911;28;20028;-67
2023/10/10 16:17:30;;;;;;;1060.63;965.20;;;;;;;;;;10390772;28;20065;-67
2023/10/10 16:22:35;;;;;;;1068.40;977.67;;;;;;;;;;10420496;28;20024;-67
2023/10/10 16:27:36;;;;;;;1050.18;950.17;;;;;;;;;;10420632;28;20030;-67
2023/10/10 16:32:37;;;;;;;1072.25;973.90;;;;;;;;;;10420458;28;20088;-67
2023/10/10 16:37:38;;;;;;;1084.60;982.97;;;;;;;;;;10420213;28;20247;-67
2023/10/10 16:42:38;;;;;;;1068.38;964.88;;;;;;;;;;10419599;28;20373;-66
2023/10/10 16:47:41;;;;;;;1068.80;968.45;;;;;;;;;;10418735;28;20020;-67
2023/10/10 16:52:42;;;;;;;1078.80;975.15;;;;;;;;;;10406464;28;20088;-66
2023/10/10 16:57:42;;;;;;;1080.73;976.17;;;;;;;;;;10388631;28;20028;-68
2023/10/10 17:02:46;;;;;;;1036.93;936.58;;;;;;;;;;10419907;28;20009;-66
2023/10/10 17:07:47;;;;;;;1061.30;960.03;;;;;;;;;;10419087;28;20271;-67
2023/10/10 17:12:48;;;;;;;1054.55;955.45;;;;;;;;;;10418193;28;20021;-67
2023/10/10 17:17:48;;;;;;;1052.87;954.83;;;;;;;;;;10419012;28;20094;-67
2023/10/10 17:22:48;;;;;;;1070.73;971.20;;;;;;;;;;10419092;28;20013;-66
2023/10/10 17:27:51;;;;;;;1058.40;961.25;;;;;;;;;;10418901;28;20365;-68
2023/10/10 17:32:52;;;;;;;1037.40;940.60;;;;;;;;;;10418817;28;20180;-66
2023/10/10 17:37:53;;;;;;;1054.15;955.25;;;;;;;;;;10417117;28;20124;-66
2023/10/10 17:42:53;;;;;;;1063.00;963.45;;;;;;;;;;10417828;28;20071;-66
2023/10/10 17:47:53;;;;;;;1050.68;950.00;;;;;;;;;;10417059;28;20112;-66
2023/10/10 17:52:56;;;;;;;1053.32;953.83;;;;;;;;;;10382662;28;20082;-68
2023/10/10 17:57:57;;;;;;;1016.00;916.40;;;;;;;;;;10417670;28;20202;-67
2023/10/10 18:03:00;;;;;;;1050.35;948.78;;;;;;;;;;10417292;28;20055;-68
2023/10/10 18:08:01;;;;;;;1024.47;924.08;;;;;;;;;;10417658;28;20619;-70
2023/10/10 18:13:04;;;;;;;1005.30;906.27;;;;;;;;;;10416893;28;20037;-70
2023/10/10 18:18:07;;;;;;;998.72;900.13;;;;;;;;;;10414191;28;20029;-69
2023/10/10 18:23:10;;;;;;;1000.88;902.30;;;;;;;;;;10416574;28;20044;-68
2023/10/10 18:28:11;;;;;;;1015.15;914.65;;;;;;;;;;10416679;28;20067;-68
2023/10/10 18:33:11;;;;;;;1027.38;926.22;;;;;;;;;;10416365;28;20083;-68
2023/10/10 18:38:11;;;;;;;1023.22;923.03;;;;;;;;;;10416037;28;20072;-66
2023/10/10 18:43:14;;;;;;;1011.47;913.65;;;;;;;;;;10416195;28;20049;-66
2023/10/10 18:48:14;;;;;;;1020.78;920.28;;;;;;;;;;10415716;28;20060;-74
2023/10/10 18:53:14;;;;;;;1014.22;914.47;;;;;;;;;;10415261;28;20102;-72
2023/10/10 18:58:15;;;;;;;1023.67;922.97;;;;;;;;;;10415972;28;20254;-70
2023/10/10 19:03:18;;;;;;;1015.95;915.42;;;;;;;;;;10414141;28;20165;-71
2023/10/10 19:08:19;;;;;;;1027.82;927.25;;;;;;;;;;10411508;28;20026;-67
2023/10/10 19:13:19;;;;;;;1046.72;944.35;;;;;;;;;;10405052;28;20049;-71
2023/10/10 19:18:22;;;;;;;1031.67;930.43;;;;;;;;;;10409281;28;20025;-74
2023/10/10 19:23:22;;;;;;;1029.53;928.63;;;;;;;;;;10410547;28;20017;-73
2023/10/10 19:28:22;;;;;;;1043.35;942.80;;;;;;;;;;10412140;28;20379;-74
2023/10/10 19:33:23;;;;;;;1018.45;918.03;;;;;;;;;;10418432;28;20116;-74
2023/10/10 19:38:25;;;;;;;1008.83;909.55;;;;;;;;;;10418761;28;20041;-72
2023/10/10 19:43:25;;;;;;;1014.35;915.72;;;;;;;;;;10413710;28;20029;-68
2023/10/10 19:48:28;;;;;;;1010.88;911.40;;;;;;;;;;10418904;28;20311;-69
2023/10/10 19:53:29;;;;;;;998.00;902.30;;;;;;;;;;10418907;28;20219;-68
2023/10/10 19:58:30;;;;;;;1034.73;937.03;;;;;;;;;;10419528;28;20080;-68
2023/10/10 20:03:30;;;;;;;1032.57;933.75;;;;;;;;;;10419482;28;20022;-68
2023/10/10 20:08:34;;;;;;;971.55;900.15;;;;;;;;;;10418999;28;20387;-69
2023/10/10 20:13:34;;;;;;;1008.75;912.63;;;;;;;;;;10419031;28;20165;-69
2023/10/10 20:18:34;;;;;;;1030.35;947.13;;;;;;;;;;10418370;28;20171;-69
2023/10/10 20:23:38;;;;;;;1006.72;925.10;;;;;;;;;;10421061;28;20021;-69
2023/10/10 20:28:38;;;;;;;1001.75;915.53;;;;;;;;;;10421342;28;20017;-69
2023/10/10 20:33:38;;;;;;;1009.22;917.50;;;;;;;;;;10420949;28;20339;-69
2023/10/10 20:38:42;;;;;;;990.97;899.95;;;;;;;;;;10419030;28;20072;-68
2023/10/10 20:43:43;;;;;;;1010.67;916.97;;;;;;;;;;10419554;28;20040;-69
2023/10/10 20:48:44;;;;;;;1028.05;932.83;;;;;;;;;;10420130;28;20022;-68
2023/10/10 20:53:45;;;;;;;1021.10;926.20;;;;;;;;;;10419906;28;20063;-69
2023/10/10 20:58:45;;;;;;;1021.90;935.38;;;;;;;;;;10420710;28;20048;-68
2023/10/10 21:03:45;;;;;;;870.05;806.60;;;;;;;;;;10419752;28;20043;-68
2023/10/10 21:08:46;;;;;;;961.33;891.65;;;;;;;;;;10419564;28;20028;-68
2023/10/10 21:13:46;;;;;;;925.53;859.00;;;;;;;;;;10419401;28;20087;-69
2023/10/10 21:18:47;;;;;;;976.17;901.42;;;;;;;;;;10418134;28;20274;-68
2023/10/10 21:23:47;;;;;;;973.37;896.10;;;;;;;;;;10418446;28;20021;-68
2023/10/10 21:28:48;;;;;;;1011.72;920.67;;;;;;;;;;10417487;28;20092;-68
2023/10/10 21:33:49;;;;;;;1008.25;920.58;;;;;;;;;;10419232;28;20035;-68
2023/10/10 21:38:49;;;;;;;993.22;913.65;;;;;;;;;;10417954;28;20049;-69
2023/10/10 21:43:49;;;;;;;832.75;772.25;;;;;;;;;;10418197;28;20021;-71
2023/10/10 21:48:51;;;;;;;714.72;663.10;;;;;;;;;;10417632;28;20365;-69
2023/10/10 21:53:51;;;;;;;759.35;703.35;;;;;;;;;;10417625;28;20275;-69
2023/10/10 21:58:51;;;;;;;857.97;794.13;;;;;;;;;;10417526;28;20095;-69
2023/10/10 22:03:52;;;;;;;895.85;828.70;;;;;;;;;;10417679;28;20242;-69
2023/10/10 22:08:52;;;;;;;982.13;908.65;;;;;;;;;;10416734;28;20063;-68
2023/10/10 22:13:52;;;;;;;1027.10;946.53;;;;;;;;;;10416778;28;20025;-69
2023/10/10 22:18:52;;;;;;;1001.20;915.30;;;;;;;;;;10416544;28;20318;-69
2023/10/10 22:23:53;;;;;;;997.47;913.30;;;;;;;;;;10416852;28;20371;-70
2023/10/10 22:28:53;;;;;;;967.60;881.50;;;;;;;;;;10416213;28;20040;-70
2023/10/10 22:33:53;;;;;;;972.67;886.42;;;;;;;;;;10392778;28;20030;-70
2023/10/10 22:38:53;;;;;;;978.22;891.53;;;;;;;;;;10409750;28;20369;-69
2023/10/10 22:43:54;;;;;;;971.35;886.47;;;;;;;;;;10416514;28;20053;-69
2023/10/10 22:48:54;;;;;;;946.63;867.35;;;;;;;;;;10415402;28;20040;-69
2023/10/10 22:53:54;;;;;;;976.03;891.95;;;;;;;;;;10415939;28;20025;-69
2023/10/10 22:58:55;;;;;;;993.40;908.27;;;;;;;;;;10415636;28;20028;-70
2023/10/10 23:03:55;;;;;;;976.87;891.67;;;;;;;;;;10414942;28;20068;-70
2023/10/10 23:08:57;;;;;;;935.70;853.40;;;;;;;;;;10415463;28;20204;-70
2023/10/10 23:13:57;;;;;;;955.25;878.47;;;;;;;;;;10415081;28;20373;-70
2023/10/10 23:18:57;;;;;;;969.10;885.90;;;;;;;;;;10414886;28;20029;-69
2023/10/10 23:23:58;;;;;;;956.05;872.67;;;;;;;;;;10414085;28;20091;-69
2023/10/10 23:28:58;;;;;;;933.10;859.00;;;;;;;;;;10414665;28;20033;-69
2023/10/10 23:33:59;;;;;;;935.08;859.60;;;;;;;;;;10389766;28;20411;-68
2023/10/10 23:38:59;;;;;;;906.95;836.45;;;;;;;;;;10393298;28;20041;-68
2023/10/10 23:44:08;;;;;;;911.38;836.50;;;;;;;;;;10413723;28;20045;-70
2023/10/10 23:49:08;;;;;;;945.42;862.22;;;;;;;;;;10413838;28;20021;-68
2023/10/10 23:54:11;;;;;;;936.75;854.13;;;;;;;;;;10414618;28;20089;-69
2023/10/10 23:59:11;;;;;;;938.40;856.90;;;;;;;;;;10414261;28;20036;-68
